sensor_id;sensor_type;location;lat;lon;timestamp;temperature;humidity
20827;DHT22;10574;52.508;13.236;2024-02-21T00:02:06;8.00;99.90
20827;DHT22;10574;52.508;13.236;2024-02-21T00:04:36;8.00;99.90
20827;DHT22;10574;52.508;13.236;2024-02-21T00:07:05;8.00;99.90
20827;DHT22;10574;52.508;13.236;2024-02-21T00:09:33;8.00;99.90
20827;DHT22;10574;52.508;13.236;2024-02-21T00:12:01;8.00;99.90
20827;DHT22;10574;52.508;13.236;2024-02-21T00:14:31;8.00;99.90
20827;DHT22;10574;52.508;13.236;2024-02-21T00:16:59;8.00;99.90
20827;DHT22;10574;52.508;13.236;2024-02-21T00:19:27;8.00;99.90
20827;DHT22;10574;52.508;13.236;2024-02-21T00:21:55;8.00;99.90
20827;DHT22;10574;52.508;13.236;2024-02-21T00:24:22;8.00;99.90
20827;DHT22;10574;52.508;13.236;2024-02-21T00:26:50;7.90;99.90
20827;DHT22;10574;52.508;13.236;2024-02-21T00:29:18;7.90;99.90
20827;DHT22;10574;52.508;13.236;2024-02-21T00:31:46;8.00;99.90
20827;DHT22;10574;52.508;13.236;2024-02-21T00:34:14;7.90;99.90
20827;DHT22;10574;52.508;13.236;2024-02-21T00:36:41;7.90;99.90
20827;DHT22;10574;52.508;13.236;2024-02-21T00:39:09;7.90;99.90
20827;DHT22;10574;52.508;13.236;2024-02-21T00:41:37;7.90;99.90
20827;DHT22;10574;52.508;13.236;2024-02-21T00:44:04;7.90;99.90
20827;DHT22;10574;52.508;13.236;2024-02-21T00:46:35;7.90;99.90
20827;DHT22;10574;52.508;13.236;2024-02-21T00:49:06;7.90;99.90
20827;DHT22;10574;52.508;13.236;2024-02-21T00:51:36;7.90;99.90
20827;DHT22;10574;52.508;13.236;2024-02-21T00:54:04;7.90;99.90
20827;DHT22;10574;52.508;13.236;2024-02-21T00:56:32;7.90;99.90
20827;DHT22;10574;52.508;13.236;2024-02-21T00:59:00;7.90;99.90
20827;DHT22;10574;52.508;13.236;2024-02-21T01:01:28;7.80;99.90
20827;DHT22;10574;52.508;13.236;2024-02-21T01:03:56;7.80;99.90
20827;DHT22;10574;52.508;13.236;2024-02-21T01:06:24;7.80;99.90
20827;DHT22;10574;52.508;13.236;2024-02-21T01:08:54;7.80;99.90
20827;DHT22;10574;52.508;13.236;2024-02-21T01:11:25;7.80;99.90
20827;DHT22;10574;52.508;13.236;2024-02-21T01:13:56;7.80;99.90
20827;DHT22;10574;52.508;13.236;2024-02-21T01:16:24;7.80;99.90
20827;DHT22;10574;52.508;13.236;2024-02-21T01:18:55;7.90;99.90
20827;DHT22;10574;52.508;13.236;2024-02-21T01:21:26;7.80;99.90
20827;DHT22;10574;52.508;13.236;2024-02-21T01:23:55;7.90;99.90
20827;DHT22;10574;52.508;13.236;2024-02-21T01:26:26;7.90;99.90
20827;DHT22;10574;52.508;13.236;2024-02-21T01:28:54;7.90;99.90
20827;DHT22;10574;52.508;13.236;2024-02-21T01:31:22;7.90;99.90
20827;DHT22;10574;52.508;13.236;2024-02-21T01:33:50;7.90;99.90
20827;DHT22;10574;52.508;13.236;2024-02-21T01:36:18;7.90;99.90
20827;DHT22;10574;52.508;13.236;2024-02-21T01:38:45;8.00;99.90
20827;DHT22;10574;52.508;13.236;2024-02-21T01:41:14;8.00;99.90
20827;DHT22;10574;52.508;13.236;2024-02-21T01:43:43;8.00;99.90
20827;DHT22;10574;52.508;13.236;2024-02-21T01:46:11;8.00;99.90
20827;DHT22;10574;52.508;13.236;2024-02-21T01:48:39;8.00;99.90
20827;DHT22;10574;52.508;13.236;2024-02-21T01:51:08;8.00;99.90
20827;DHT22;10574;52.508;13.236;2024-02-21T01:53:38;8.00;99.90
20827;DHT22;10574;52.508;13.236;2024-02-21T01:56:06;8.00;99.90
20827;DHT22;10574;52.508;13.236;2024-02-21T01:58:36;8.10;99.90
20827;DHT22;10574;52.508;13.236;2024-02-21T02:01:04;8.10;99.90
20827;DHT22;10574;52.508;13.236;2024-02-21T02:03:33;8.10;99.90
20827;DHT22;10574;52.508;13.236;2024-02-21T02:06:05;8.10;99.90
20827;DHT22;10574;52.508;13.236;2024-02-21T02:08:37;8.10;99.90
20827;DHT22;10574;52.508;13.236;2024-02-21T02:11:06;8.10;99.90
20827;DHT22;10574;52.508;13.236;2024-02-21T02:13:34;8.10;99.90
20827;DHT22;10574;52.508;13.236;2024-02-21T02:16:03;8.00;99.90
20827;DHT22;10574;52.508;13.236;2024-02-21T02:18:32;8.00;99.90
20827;DHT22;10574;52.508;13.236;2024-02-21T02:21:01;8.10;99.90
20827;DHT22;10574;52.508;13.236;2024-02-21T02:23:30;8.00;99.90
20827;DHT22;10574;52.508;13.236;2024-02-21T02:26:02;8.00;99.90
20827;DHT22;10574;52.508;13.236;2024-02-21T02:28:33;8.00;99.90
20827;DHT22;10574;52.508;13.236;2024-02-21T02:31:01;7.90;99.90
20827;DHT22;10574;52.508;13.236;2024-02-21T02:33:29;7.90;99.90
20827;DHT22;10574;52.508;13.236;2024-02-21T02:35:57;7.90;99.90
20827;DHT22;10574;52.508;13.236;2024-02-21T02:38:25;7.80;99.90
20827;DHT22;10574;52.508;13.236;2024-02-21T02:40:53;7.80;99.90
20827;DHT22;10574;52.508;13.236;2024-02-21T02:43:21;7.80;99.90
20827;DHT22;10574;52.508;13.236;2024-02-21T02:45:49;7.70;99.90
20827;DHT22;10574;52.508;13.236;2024-02-21T02:48:19;7.70;99.90
20827;DHT22;10574;52.508;13.236;2024-02-21T02:50:47;7.70;99.90
20827;DHT22;10574;52.508;13.236;2024-02-21T02:53:16;7.70;99.90
20827;DHT22;10574;52.508;13.236;2024-02-21T02:55:43;7.70;99.90
20827;DHT22;10574;52.508;13.236;2024-02-21T02:58:11;7.70;99.90
20827;DHT22;10574;52.508;13.236;2024-02-21T03:00:39;7.60;99.90
20827;DHT22;10574;52.508;13.236;2024-02-21T03:03:07;7.60;99.90
20827;DHT22;10574;52.508;13.236;2024-02-21T03:05:35;7.60;99.90
20827;DHT22;10574;52.508;13.236;2024-02-21T03:08:06;7.60;99.90
20827;DHT22;10574;52.508;13.236;2024-02-21T03:10:34;7.60;99.90
20827;DHT22;10574;52.508;13.236;2024-02-21T03:13:04;7.60;99.90
20827;DHT22;10574;52.508;13.236;2024-02-21T03:15:32;7.60;99.90
20827;DHT22;10574;52.508;13.236;2024-02-21T03:18:00;7.50;99.90
20827;DHT22;10574;52.508;13.236;2024-02-21T03:20:33;7.50;99.90
20827;DHT22;10574;52.508;13.236;2024-02-21T03:23:06;7.50;99.90
20827;DHT22;10574;52.508;13.236;2024-02-21T03:25:35;7.50;99.90
20827;DHT22;10574;52.508;13.236;2024-02-21T03:28:07;7.50;99.90
20827;DHT22;10574;52.508;13.236;2024-02-21T03:30:34;7.50;99.90
20827;DHT22;10574;52.508;13.236;2024-02-21T03:33:03;7.50;99.90
20827;DHT22;10574;52.508;13.236;2024-02-21T03:35:31;7.50;99.90
20827;DHT22;10574;52.508;13.236;2024-02-21T03:38:04;7.50;99.90
20827;DHT22;10574;52.508;13.236;2024-02-21T03:40:36;7.50;99.90
20827;DHT22;10574;52.508;13.236;2024-02-21T03:43:06;7.50;99.90
20827;DHT22;10574;52.508;13.236;2024-02-21T03:45:38;7.50;99.90
20827;DHT22;10574;52.508;13.236;2024-02-21T03:48:13;7.50;99.90
20827;DHT22;10574;52.508;13.236;2024-02-21T03:50:48;7.50;99.90
20827;DHT22;10574;52.508;13.236;2024-02-21T03:53:21;7.40;99.90
20827;DHT22;10574;52.508;13.236;2024-02-21T03:55:55;7.40;99.90
20827;DHT22;10574;52.508;13.236;2024-02-21T03:58:27;7.40;99.90
20827;DHT22;10574;52.508;13.236;2024-02-21T04:00:59;7.40;99.90
20827;DHT22;10574;52.508;13.236;2024-02-21T04:03:29;7.40;99.90
20827;DHT22;10574;52.508;13.236;2024-02-21T04:06:04;7.40;99.90
20827;DHT22;10574;52.508;13.236;2024-02-21T04:08:35;7.40;99.90
20827;DHT22;10574;52.508;13.236;2024-02-21T04:11:03;7.50;99.90
20827;DHT22;10574;52.508;13.236;2024-02-21T04:13:30;7.40;99.90
20827;DHT22;10574;52.508;13.236;2024-02-21T04:15:58;7.40;99.90
20827;DHT22;10574;52.508;13.236;2024-02-21T04:18:27;7.40;99.90
20827;DHT22;10574;52.508;13.236;2024-02-21T04:20:55;7.40;99.90
20827;DHT22;10574;52.508;13.236;2024-02-21T04:23:23;7.50;99.90
20827;DHT22;10574;52.508;13.236;2024-02-21T04:25:51;7.40;99.90
20827;DHT22;10574;52.508;13.236;2024-02-21T04:28:19;7.40;99.90
20827;DHT22;10574;52.508;13.236;2024-02-21T04:30:46;7.40;99.90
20827;DHT22;10574;52.508;13.236;2024-02-21T04:33:14;7.40;99.90
20827;DHT22;10574;52.508;13.236;2024-02-21T04:35:48;7.40;99.90
20827;DHT22;10574;52.508;13.236;2024-02-21T04:38:18;7.40;99.90
20827;DHT22;10574;52.508;13.236;2024-02-21T04:40:46;7.40;99.90
20827;DHT22;10574;52.508;13.236;2024-02-21T04:43:14;7.40;99.90
20827;DHT22;10574;52.508;13.236;2024-02-21T04:45:42;7.40;99.90
20827;DHT22;10574;52.508;13.236;2024-02-21T04:48:09;7.40;99.90
20827;DHT22;10574;52.508;13.236;2024-02-21T04:50:38;7.40;99.90
20827;DHT22;10574;52.508;13.236;2024-02-21T04:53:05;7.40;99.90
20827;DHT22;10574;52.508;13.236;2024-02-21T04:55:33;7.50;99.90
20827;DHT22;10574;52.508;13.236;2024-02-21T04:58:01;7.50;99.90
20827;DHT22;10574;52.508;13.236;2024-02-21T05:00:29;7.50;99.90
20827;DHT22;10574;52.508;13.236;2024-02-21T05:02:57;7.50;99.90
20827;DHT22;10574;52.508;13.236;2024-02-21T05:05:24;7.50;99.90
20827;DHT22;10574;52.508;13.236;2024-02-21T05:07:52;7.40;99.90
20827;DHT22;10574;52.508;13.236;2024-02-21T05:10:20;7.40;99.90
20827;DHT22;10574;52.508;13.236;2024-02-21T05:12:47;7.40;99.90
20827;DHT22;10574;52.508;13.236;2024-02-21T05:15:16;7.40;99.90
20827;DHT22;10574;52.508;13.236;2024-02-21T05:17:45;7.40;99.90
20827;DHT22;10574;52.508;13.236;2024-02-21T05:20:13;7.40;99.90
20827;DHT22;10574;52.508;13.236;2024-02-21T05:22:41;7.40;99.90
20827;DHT22;10574;52.508;13.236;2024-02-21T05:25:09;7.40;99.90
20827;DHT22;10574;52.508;13.236;2024-02-21T05:27:37;7.40;99.90
20827;DHT22;10574;52.508;13.236;2024-02-21T05:30:06;7.40;99.90
20827;DHT22;10574;52.508;13.236;2024-02-21T05:32:33;7.40;99.90
20827;DHT22;10574;52.508;13.236;2024-02-21T05:35:02;7.40;99.90
20827;DHT22;10574;52.508;13.236;2024-02-21T05:37:29;7.50;99.90
20827;DHT22;10574;52.508;13.236;2024-02-21T05:39:58;7.50;99.90
20827;DHT22;10574;52.508;13.236;2024-02-21T05:42:25;7.40;99.90
20827;DHT22;10574;52.508;13.236;2024-02-21T05:44:53;7.50;99.90
20827;DHT22;10574;52.508;13.236;2024-02-21T05:47:21;7.50;99.90
20827;DHT22;10574;52.508;13.236;2024-02-21T05:49:50;7.40;99.90
20827;DHT22;10574;52.508;13.236;2024-02-21T05:52:19;7.40;99.90
20827;DHT22;10574;52.508;13.236;2024-02-21T05:54:48;7.50;99.90
20827;DHT22;10574;52.508;13.236;2024-02-21T05:57:17;7.50;99.90
20827;DHT22;10574;52.508;13.236;2024-02-21T05:59:45;7.50;99.90
20827;DHT22;10574;52.508;13.236;2024-02-21T06:02:13;7.50;99.90
20827;DHT22;10574;52.508;13.236;2024-02-21T06:04:41;7.50;99.90
20827;DHT22;10574;52.508;13.236;2024-02-21T06:07:09;7.50;99.90
20827;DHT22;10574;52.508;13.236;2024-02-21T06:09:37;7.50;99.90
20827;DHT22;10574;52.508;13.236;2024-02-21T06:12:05;7.50;99.90
20827;DHT22;10574;52.508;13.236;2024-02-21T06:14:35;7.50;99.90
20827;DHT22;10574;52.508;13.236;2024-02-21T06:17:02;7.60;99.90
20827;DHT22;10574;52.508;13.236;2024-02-21T06:19:30;7.50;99.90
20827;DHT22;10574;52.508;13.236;2024-02-21T06:21:58;7.60;99.90
20827;DHT22;10574;52.508;13.236;2024-02-21T06:24:26;7.60;99.90
20827;DHT22;10574;52.508;13.236;2024-02-21T06:26:53;7.60;99.90
20827;DHT22;10574;52.508;13.236;2024-02-21T06:29:26;7.50;99.90
20827;DHT22;10574;52.508;13.236;2024-02-21T06:31:51;7.50;99.90
20827;DHT22;10574;52.508;13.236;2024-02-21T06:34:18;7.50;99.90
20827;DHT22;10574;52.508;13.236;2024-02-21T06:36:46;7.60;99.90
20827;DHT22;10574;52.508;13.236;2024-02-21T06:39:14;7.60;99.90
20827;DHT22;10574;52.508;13.236;2024-02-21T06:41:42;7.60;99.90
20827;DHT22;10574;52.508;13.236;2024-02-21T06:44:09;7.60;99.90
20827;DHT22;10574;52.508;13.236;2024-02-21T06:46:37;7.60;99.90
20827;DHT22;10574;52.508;13.236;2024-02-21T06:49:05;7.60;99.90
20827;DHT22;10574;52.508;13.236;2024-02-21T06:51:33;7.60;99.90
20827;DHT22;10574;52.508;13.236;2024-02-21T06:54:01;7.70;99.90
20827;DHT22;10574;52.508;13.236;2024-02-21T06:56:30;7.70;99.90
20827;DHT22;10574;52.508;13.236;2024-02-21T06:58:58;7.70;99.90
20827;DHT22;10574;52.508;13.236;2024-02-21T07:01:26;7.70;99.90
20827;DHT22;10574;52.508;13.236;2024-02-21T07:03:55;7.70;99.90
20827;DHT22;10574;52.508;13.236;2024-02-21T07:06:24;7.80;99.90
20827;DHT22;10574;52.508;13.236;2024-02-21T07:08:51;7.80;99.90
20827;DHT22;10574;52.508;13.236;2024-02-21T07:11:19;7.80;99.90
20827;DHT22;10574;52.508;13.236;2024-02-21T07:13:48;7.80;99.90
20827;DHT22;10574;52.508;13.236;2024-02-21T07:16:15;7.80;99.90
20827;DHT22;10574;52.508;13.236;2024-02-21T07:18:43;7.90;99.90
20827;DHT22;10574;52.508;13.236;2024-02-21T07:21:11;7.80;99.90
20827;DHT22;10574;52.508;13.236;2024-02-21T07:23:43;7.80;99.90
20827;DHT22;10574;52.508;13.236;2024-02-21T07:26:11;7.90;99.90
20827;DHT22;10574;52.508;13.236;2024-02-21T07:28:39;7.90;99.90
20827;DHT22;10574;52.508;13.236;2024-02-21T07:31:06;7.90;99.90
20827;DHT22;10574;52.508;13.236;2024-02-21T07:33:34;7.90;99.90
20827;DHT22;10574;52.508;13.236;2024-02-21T07:36:07;7.90;99.90
20827;DHT22;10574;52.508;13.236;2024-02-21T07:38:35;7.90;99.90
20827;DHT22;10574;52.508;13.236;2024-02-21T07:41:03;7.90;99.90
20827;DHT22;10574;52.508;13.236;2024-02-21T07:43:30;7.90;99.90
20827;DHT22;10574;52.508;13.236;2024-02-21T07:45:58;7.90;99.90
20827;DHT22;10574;52.508;13.236;2024-02-21T07:48:26;7.90;99.90
20827;DHT22;10574;52.508;13.236;2024-02-21T07:50:53;7.90;99.90
20827;DHT22;10574;52.508;13.236;2024-02-21T07:53:22;8.00;99.90
20827;DHT22;10574;52.508;13.236;2024-02-21T07:55:50;8.00;99.90
20827;DHT22;10574;52.508;13.236;2024-02-21T07:58:18;8.00;99.90
20827;DHT22;10574;52.508;13.236;2024-02-21T08:00:46;8.00;99.90
20827;DHT22;10574;52.508;13.236;2024-02-21T08:03:15;8.00;99.90
20827;DHT22;10574;52.508;13.236;2024-02-21T08:05:44;8.00;99.90
20827;DHT22;10574;52.508;13.236;2024-02-21T08:08:14;8.00;99.90
20827;DHT22;10574;52.508;13.236;2024-02-21T08:10:43;8.10;99.90
20827;DHT22;10574;52.508;13.236;2024-02-21T08:13:11;8.10;99.90
20827;DHT22;10574;52.508;13.236;2024-02-21T08:15:39;8.20;99.90
20827;DHT22;10574;52.508;13.236;2024-02-21T08:18:09;8.20;99.90
20827;DHT22;10574;52.508;13.236;2024-02-21T08:20:37;8.20;99.90
20827;DHT22;10574;52.508;13.236;2024-02-21T08:23:04;8.30;99.90
20827;DHT22;10574;52.508;13.236;2024-02-21T08:25:32;8.30;99.90
20827;DHT22;10574;52.508;13.236;2024-02-21T08:28:00;8.30;99.90
20827;DHT22;10574;52.508;13.236;2024-02-21T08:30:29;8.40;99.90
20827;DHT22;10574;52.508;13.236;2024-02-21T08:32:57;8.40;99.90
20827;DHT22;10574;52.508;13.236;2024-02-21T08:35:25;8.40;99.90
20827;DHT22;10574;52.508;13.236;2024-02-21T08:37:52;8.40;99.90
20827;DHT22;10574;52.508;13.236;2024-02-21T08:40:20;8.50;99.90
20827;DHT22;10574;52.508;13.236;2024-02-21T08:42:48;8.50;99.90
20827;DHT22;10574;52.508;13.236;2024-02-21T08:45:16;8.60;99.90
20827;DHT22;10574;52.508;13.236;2024-02-21T08:47:44;8.70;99.90
20827;DHT22;10574;52.508;13.236;2024-02-21T08:50:11;8.70;99.90
20827;DHT22;10574;52.508;13.236;2024-02-21T08:52:40;8.80;99.90
20827;DHT22;10574;52.508;13.236;2024-02-21T08:55:08;8.90;99.90
20827;DHT22;10574;52.508;13.236;2024-02-21T08:57:36;8.90;99.90
20827;DHT22;10574;52.508;13.236;2024-02-21T09:00:07;8.90;99.90
20827;DHT22;10574;52.508;13.236;2024-02-21T09:02:41;9.00;99.90
20827;DHT22;10574;52.508;13.236;2024-02-21T09:05:12;9.00;99.90
20827;DHT22;10574;52.508;13.236;2024-02-21T09:07:39;9.00;99.90
20827;DHT22;10574;52.508;13.236;2024-02-21T09:10:08;9.00;99.90
20827;DHT22;10574;52.508;13.236;2024-02-21T09:12:36;9.00;99.90
20827;DHT22;10574;52.508;13.236;2024-02-21T09:15:04;9.00;99.90
20827;DHT22;10574;52.508;13.236;2024-02-21T09:20:23;9.10;99.90
20827;DHT22;10574;52.508;13.236;2024-02-21T09:22:51;9.20;99.90
20827;DHT22;10574;52.508;13.236;2024-02-21T09:25:19;9.20;99.90
20827;DHT22;10574;52.508;13.236;2024-02-21T09:27:48;9.20;99.90
20827;DHT22;10574;52.508;13.236;2024-02-21T09:30:18;9.30;99.90
20827;DHT22;10574;52.508;13.236;2024-02-21T09:32:46;9.30;99.90
20827;DHT22;10574;52.508;13.236;2024-02-21T09:35:15;9.30;99.90
20827;DHT22;10574;52.508;13.236;2024-02-21T09:37:42;9.40;99.90
20827;DHT22;10574;52.508;13.236;2024-02-21T09:40:12;9.50;99.90
20827;DHT22;10574;52.508;13.236;2024-02-21T09:42:41;9.60;99.90
20827;DHT22;10574;52.508;13.236;2024-02-21T09:48:19;9.70;99.90
20827;DHT22;10574;52.508;13.236;2024-02-21T09:50:44;9.70;99.90
20827;DHT22;10574;52.508;13.236;2024-02-21T09:53:13;9.80;99.90
20827;DHT22;10574;52.508;13.236;2024-02-21T09:55:43;9.80;99.90
20827;DHT22;10574;52.508;13.236;2024-02-21T09:58:12;9.80;99.90
20827;DHT22;10574;52.508;13.236;2024-02-21T10:00:40;9.80;99.90
20827;DHT22;10574;52.508;13.236;2024-02-21T10:03:07;9.70;99.90
20827;DHT22;10574;52.508;13.236;2024-02-21T10:05:36;9.80;99.90
20827;DHT22;10574;52.508;13.236;2024-02-21T10:08:04;9.90;99.90
20827;DHT22;10574;52.508;13.236;2024-02-21T10:10:43;9.80;99.90
20827;DHT22;10574;52.508;13.236;2024-02-21T10:13:24;9.80;99.90
20827;DHT22;10574;52.508;13.236;2024-02-21T10:16:07;9.90;99.90
20827;DHT22;10574;52.508;13.236;2024-02-21T10:18:35;9.90;99.90
20827;DHT22;10574;52.508;13.236;2024-02-21T10:21:05;9.90;99.90
20827;DHT22;10574;52.508;13.236;2024-02-21T10:23:46;9.90;99.90
20827;DHT22;10574;52.508;13.236;2024-02-21T10:26:15;9.90;99.90
20827;DHT22;10574;52.508;13.236;2024-02-21T10:28:44;9.90;99.90
20827;DHT22;10574;52.508;13.236;2024-02-21T10:31:25;9.90;99.90
20827;DHT22;10574;52.508;13.236;2024-02-21T10:33:58;9.90;99.90
20827;DHT22;10574;52.508;13.236;2024-02-21T10:36:26;9.90;99.90
20827;DHT22;10574;52.508;13.236;2024-02-21T10:38:54;9.90;99.90
20827;DHT22;10574;52.508;13.236;2024-02-21T10:41:23;9.90;99.90
20827;DHT22;10574;52.508;13.236;2024-02-21T10:43:52;9.90;99.90
20827;DHT22;10574;52.508;13.236;2024-02-21T10:46:23;9.90;99.90
20827;DHT22;10574;52.508;13.236;2024-02-21T10:51:30;9.90;99.90
20827;DHT22;10574;52.508;13.236;2024-02-21T10:54:22;9.80;99.90
20827;DHT22;10574;52.508;13.236;2024-02-21T10:56:48;9.80;99.90
20827;DHT22;10574;52.508;13.236;2024-02-21T10:59:17;9.80;99.90
20827;DHT22;10574;52.508;13.236;2024-02-21T11:01:45;9.90;99.90
20827;DHT22;10574;52.508;13.236;2024-02-21T11:04:14;9.90;99.90
20827;DHT22;10574;52.508;13.236;2024-02-21T11:06:42;10.00;99.90
20827;DHT22;10574;52.508;13.236;2024-02-21T11:09:11;10.10;99.90
20827;DHT22;10574;52.508;13.236;2024-02-21T11:11:44;10.20;99.90
20827;DHT22;10574;52.508;13.236;2024-02-21T11:14:22;10.30;99.90
20827;DHT22;10574;52.508;13.236;2024-02-21T11:16:50;10.50;99.90
20827;DHT22;10574;52.508;13.236;2024-02-21T11:19:22;10.60;99.90
20827;DHT22;10574;52.508;13.236;2024-02-21T11:21:52;10.80;99.90
20827;DHT22;10574;52.508;13.236;2024-02-21T11:24:35;10.90;99.90
20827;DHT22;10574;52.508;13.236;2024-02-21T11:30:04;11.40;99.90
20827;DHT22;10574;52.508;13.236;2024-02-21T11:32:19;11.30;99.90
20827;DHT22;10574;52.508;13.236;2024-02-21T11:35:03;11.40;99.90
20827;DHT22;10574;52.508;13.236;2024-02-21T11:37:33;11.40;99.90
20827;DHT22;10574;52.508;13.236;2024-02-21T11:40:01;11.60;99.90
20827;DHT22;10574;52.508;13.236;2024-02-21T11:42:30;11.50;99.90
20827;DHT22;10574;52.508;13.236;2024-02-21T11:44:59;11.50;99.90
20827;DHT22;10574;52.508;13.236;2024-02-21T11:47:28;11.40;99.90
20827;DHT22;10574;52.508;13.236;2024-02-21T11:49:56;11.50;99.90
20827;DHT22;10574;52.508;13.236;2024-02-21T11:52:25;11.60;99.90
20827;DHT22;10574;52.508;13.236;2024-02-21T11:54:54;11.70;99.90
20827;DHT22;10574;52.508;13.236;2024-02-21T11:57:24;11.70;99.90
20827;DHT22;10574;52.508;13.236;2024-02-21T11:59:51;11.60;99.90
20827;DHT22;10574;52.508;13.236;2024-02-21T12:02:22;11.70;99.90
20827;DHT22;10574;52.508;13.236;2024-02-21T12:04:50;11.70;99.90
20827;DHT22;10574;52.508;13.236;2024-02-21T12:07:18;11.80;99.90
20827;DHT22;10574;52.508;13.236;2024-02-21T12:09:46;11.70;99.90
20827;DHT22;10574;52.508;13.236;2024-02-21T12:12:14;11.80;99.90
20827;DHT22;10574;52.508;13.236;2024-02-21T12:14:43;11.80;99.90
20827;DHT22;10574;52.508;13.236;2024-02-21T12:17:10;11.80;99.90
20827;DHT22;10574;52.508;13.236;2024-02-21T12:19:38;11.90;99.90
20827;DHT22;10574;52.508;13.236;2024-02-21T12:22:06;11.90;99.90
20827;DHT22;10574;52.508;13.236;2024-02-21T12:24:35;12.00;99.90
20827;DHT22;10574;52.508;13.236;2024-02-21T12:27:04;12.10;99.90
20827;DHT22;10574;52.508;13.236;2024-02-21T12:29:32;12.20;99.90
20827;DHT22;10574;52.508;13.236;2024-02-21T12:32:00;12.30;99.90
20827;DHT22;10574;52.508;13.236;2024-02-21T12:34:27;12.30;99.90
20827;DHT22;10574;52.508;13.236;2024-02-21T12:36:57;12.30;99.90
20827;DHT22;10574;52.508;13.236;2024-02-21T12:39:26;12.30;99.90
20827;DHT22;10574;52.508;13.236;2024-02-21T12:41:55;12.30;99.90
20827;DHT22;10574;52.508;13.236;2024-02-21T12:44:23;12.30;99.90
20827;DHT22;10574;52.508;13.236;2024-02-21T12:46:51;12.30;99.90
20827;DHT22;10574;52.508;13.236;2024-02-21T12:49:20;12.30;99.90
20827;DHT22;10574;52.508;13.236;2024-02-21T12:51:48;12.20;99.90
20827;DHT22;10574;52.508;13.236;2024-02-21T12:54:15;12.10;99.90
20827;DHT22;10574;52.508;13.236;2024-02-21T12:56:43;12.10;99.90
20827;DHT22;10574;52.508;13.236;2024-02-21T12:59:11;12.20;99.90
20827;DHT22;10574;52.508;13.236;2024-02-21T13:01:39;12.20;99.90
20827;DHT22;10574;52.508;13.236;2024-02-21T13:04:06;12.10;99.90
20827;DHT22;10574;52.508;13.236;2024-02-21T13:06:34;12.20;99.90
20827;DHT22;10574;52.508;13.236;2024-02-21T13:09:03;12.10;99.90
20827;DHT22;10574;52.508;13.236;2024-02-21T13:11:33;12.00;99.90
20827;DHT22;10574;52.508;13.236;2024-02-21T13:14:01;12.00;99.90
20827;DHT22;10574;52.508;13.236;2024-02-21T13:16:29;12.00;99.90
20827;DHT22;10574;52.508;13.236;2024-02-21T13:18:57;12.00;99.90
20827;DHT22;10574;52.508;13.236;2024-02-21T13:21:26;12.10;99.90
20827;DHT22;10574;52.508;13.236;2024-02-21T13:23:53;12.20;99.90
20827;DHT22;10574;52.508;13.236;2024-02-21T13:26:22;12.10;99.90
20827;DHT22;10574;52.508;13.236;2024-02-21T13:28:50;12.00;99.90
20827;DHT22;10574;52.508;13.236;2024-02-21T13:31:18;12.00;99.90
20827;DHT22;10574;52.508;13.236;2024-02-21T13:33:46;11.80;99.90
20827;DHT22;10574;52.508;13.236;2024-02-21T13:36:14;11.80;99.90
20827;DHT22;10574;52.508;13.236;2024-02-21T13:38:43;11.80;99.90
20827;DHT22;10574;52.508;13.236;2024-02-21T13:41:10;11.70;99.90
20827;DHT22;10574;52.508;13.236;2024-02-21T13:43:38;11.70;99.90
20827;DHT22;10574;52.508;13.236;2024-02-21T13:46:06;11.70;99.90
20827;DHT22;10574;52.508;13.236;2024-02-21T13:49:01;11.80;99.90
20827;DHT22;10574;52.508;13.236;2024-02-21T13:51:24;11.80;99.90
20827;DHT22;10574;52.508;13.236;2024-02-21T13:53:52;11.70;99.90
20827;DHT22;10574;52.508;13.236;2024-02-21T13:56:19;11.80;99.90
20827;DHT22;10574;52.508;13.236;2024-02-21T13:58:48;11.80;99.90
20827;DHT22;10574;52.508;13.236;2024-02-21T14:01:16;11.90;99.90
20827;DHT22;10574;52.508;13.236;2024-02-21T14:03:44;11.90;99.90
20827;DHT22;10574;52.508;13.236;2024-02-21T14:06:14;11.90;99.90
20827;DHT22;10574;52.508;13.236;2024-02-21T14:08:42;11.90;99.90
20827;DHT22;10574;52.508;13.236;2024-02-21T14:11:10;11.90;99.90
20827;DHT22;10574;52.508;13.236;2024-02-21T14:13:39;12.00;99.90
20827;DHT22;10574;52.508;13.236;2024-02-21T14:16:11;12.00;99.90
20827;DHT22;10574;52.508;13.236;2024-02-21T14:18:42;12.00;99.90
20827;DHT22;10574;52.508;13.236;2024-02-21T14:21:13;11.90;99.90
20827;DHT22;10574;52.508;13.236;2024-02-21T14:23:41;12.00;99.90
20827;DHT22;10574;52.508;13.236;2024-02-21T14:26:09;11.90;99.90
20827;DHT22;10574;52.508;13.236;2024-02-21T14:28:38;11.90;99.90
20827;DHT22;10574;52.508;13.236;2024-02-21T14:31:07;12.00;99.90
20827;DHT22;10574;52.508;13.236;2024-02-21T14:33:37;12.00;99.90
20827;DHT22;10574;52.508;13.236;2024-02-21T14:36:05;11.90;99.90
20827;DHT22;10574;52.508;13.236;2024-02-21T14:38:34;11.80;99.90
20827;DHT22;10574;52.508;13.236;2024-02-21T14:41:06;11.90;99.90
20827;DHT22;10574;52.508;13.236;2024-02-21T14:43:34;11.90;99.90
20827;DHT22;10574;52.508;13.236;2024-02-21T14:46:01;11.80;99.90
20827;DHT22;10574;52.508;13.236;2024-02-21T14:48:31;11.80;99.90
20827;DHT22;10574;52.508;13.236;2024-02-21T14:50:59;11.80;99.90
20827;DHT22;10574;52.508;13.236;2024-02-21T14:53:27;11.70;99.90
20827;DHT22;10574;52.508;13.236;2024-02-21T14:55:55;11.60;99.90
20827;DHT22;10574;52.508;13.236;2024-02-21T14:58:24;11.60;99.90
20827;DHT22;10574;52.508;13.236;2024-02-21T15:00:52;11.60;99.90
20827;DHT22;10574;52.508;13.236;2024-02-21T15:03:20;11.60;99.90
20827;DHT22;10574;52.508;13.236;2024-02-21T15:05:48;11.50;99.90
20827;DHT22;10574;52.508;13.236;2024-02-21T15:08:16;11.50;99.90
20827;DHT22;10574;52.508;13.236;2024-02-21T15:10:45;11.50;99.90
20827;DHT22;10574;52.508;13.236;2024-02-21T15:13:13;11.50;99.90
20827;DHT22;10574;52.508;13.236;2024-02-21T15:15:41;11.50;99.90
20827;DHT22;10574;52.508;13.236;2024-02-21T15:18:09;11.50;99.90
20827;DHT22;10574;52.508;13.236;2024-02-21T15:20:36;11.40;99.90
20827;DHT22;10574;52.508;13.236;2024-02-21T15:23:04;11.30;99.90
20827;DHT22;10574;52.508;13.236;2024-02-21T15:25:32;11.30;99.90
20827;DHT22;10574;52.508;13.236;2024-02-21T15:28:00;11.20;99.90
20827;DHT22;10574;52.508;13.236;2024-02-21T15:30:29;11.20;99.90
20827;DHT22;10574;52.508;13.236;2024-02-21T15:32:59;11.10;99.90
20827;DHT22;10574;52.508;13.236;2024-02-21T15:35:31;11.10;99.90
20827;DHT22;10574;52.508;13.236;2024-02-21T15:37:59;11.00;99.90
20827;DHT22;10574;52.508;13.236;2024-02-21T15:40:27;11.00;99.90
20827;DHT22;10574;52.508;13.236;2024-02-21T15:42:54;10.90;99.90
20827;DHT22;10574;52.508;13.236;2024-02-21T15:45:22;10.80;99.90
20827;DHT22;10574;52.508;13.236;2024-02-21T15:47:50;10.80;99.90
20827;DHT22;10574;52.508;13.236;2024-02-21T15:50:20;10.80;99.90